sensor_id;sensor_type;location;lat;lon;timestamp;P1;durP1;ratioP1;P2;durP2;ratioP2
15063;SDS011;7631;52.088;5.088;2023-04-01T00:00:44;6.20;;;3.47;;
15063;SDS011;7631;52.088;5.088;2023-04-01T00:03:09;4.53;;;3.33;;
15063;SDS011;7631;52.088;5.088;2023-04-01T00:05:34;7.03;;;3.33;;
15063;SDS011;7631;52.088;5.088;2023-04-01T00:08:00;5.53;;;3.53;;
15063;SDS011;7631;52.088;5.088;2023-04-01T00:10:25;5.83;;;3.90;;
15063;SDS011;7631;52.088;5.088;2023-04-01T00:12:51;6.90;;;4.07;;
15063;SDS011;7631;52.088;5.088;2023-04-01T00:15:16;7.00;;;3.80;;
15063;SDS011;7631;52.088;5.088;2023-04-01T00:17:41;5.90;;;3.87;;
15063;SDS011;7631;52.088;5.088;2023-04-01T00:20:06;6.80;;;3.80;;
15063;SDS011;7631;52.088;5.088;2023-04-01T00:22:32;7.13;;;4.03;;
15063;SDS011;7631;52.088;5.088;2023-04-01T00:24:58;6.23;;;3.80;;
15063;SDS011;7631;52.088;5.088;2023-04-01T00:27:24;7.77;;;4.40;;
15063;SDS011;7631;52.088;5.088;2023-04-01T00:29:49;7.70;;;4.53;;
15063;SDS011;7631;52.088;5.088;2023-04-01T00:32:15;6.07;;;4.10;;
15063;SDS011;7631;52.088;5.088;2023-04-01T00:34:40;8.37;;;5.20;;
15063;SDS011;7631;52.088;5.088;2023-04-01T00:37:06;6.80;;;4.20;;
15063;SDS011;7631;52.088;5.088;2023-04-01T00:39:31;7.63;;;4.90;;
15063;SDS011;7631;52.088;5.088;2023-04-01T00:41:58;7.27;;;4.80;;
15063;SDS011;7631;52.088;5.088;2023-04-01T00:44:24;7.87;;;4.63;;
15063;SDS011;7631;52.088;5.088;2023-04-01T00:46:50;6.60;;;4.60;;
15063;SDS011;7631;52.088;5.088;2023-04-01T00:49:15;7.53;;;4.47;;
15063;SDS011;7631;52.088;5.088;2023-04-01T00:51:42;7.33;;;5.13;;
15063;SDS011;7631;52.088;5.088;2023-04-01T00:54:08;8.33;;;5.60;;
15063;SDS011;7631;52.088;5.088;2023-04-01T00:56:37;9.27;;;5.00;;
15063;SDS011;7631;52.088;5.088;2023-04-01T00:59:10;10.23;;;5.67;;
15063;SDS011;7631;52.088;5.088;2023-04-01T01:01:36;9.53;;;5.47;;
15063;SDS011;7631;52.088;5.088;2023-04-01T01:04:02;9.10;;;5.50;;
15063;SDS011;7631;52.088;5.088;2023-04-01T01:09:02;7.90;;;5.60;;
15063;SDS011;7631;52.088;5.088;2023-04-01T01:11:37;7.87;;;5.30;;
15063;SDS011;7631;52.088;5.088;2023-04-01T01:16:33;7.57;;;5.23;;
15063;SDS011;7631;52.088;5.088;2023-04-01T01:19:09;8.27;;;5.73;;
15063;SDS011;7631;52.088;5.088;2023-04-01T01:21:45;7.50;;;5.37;;
15063;SDS011;7631;52.088;5.088;2023-04-01T01:29:43;7.97;;;5.20;;
15063;SDS011;7631;52.088;5.088;2023-04-01T01:32:16;8.90;;;5.90;;
15063;SDS011;7631;52.088;5.088;2023-04-01T01:37:26;8.73;;;5.80;;
15063;SDS011;7631;52.088;5.088;2023-04-01T01:39:56;9.53;;;6.17;;
15063;SDS011;7631;52.088;5.088;2023-04-01T01:42:22;8.57;;;5.73;;
15063;SDS011;7631;52.088;5.088;2023-04-01T01:44:49;7.57;;;5.70;;
15063;SDS011;7631;52.088;5.088;2023-04-01T01:47:15;7.53;;;5.23;;
15063;SDS011;7631;52.088;5.088;2023-04-01T01:49:41;6.83;;;5.27;;
15063;SDS011;7631;52.088;5.088;2023-04-01T01:52:07;8.30;;;5.37;;
15063;SDS011;7631;52.088;5.088;2023-04-01T01:54:32;8.13;;;5.77;;
15063;SDS011;7631;52.088;5.088;2023-04-01T01:57:07;7.17;;;5.37;;
15063;SDS011;7631;52.088;5.088;2023-04-01T01:59:34;6.67;;;4.67;;
15063;SDS011;7631;52.088;5.088;2023-04-01T02:02:00;7.03;;;5.20;;
15063;SDS011;7631;52.088;5.088;2023-04-01T02:04:25;6.37;;;4.93;;
15063;SDS011;7631;52.088;5.088;2023-04-01T02:06:59;6.40;;;4.53;;
15063;SDS011;7631;52.088;5.088;2023-04-01T02:09:26;7.60;;;5.00;;
15063;SDS011;7631;52.088;5.088;2023-04-01T02:11:52;6.10;;;4.73;;
15063;SDS011;7631;52.088;5.088;2023-04-01T02:14:20;8.00;;;4.50;;
15063;SDS011;7631;52.088;5.088;2023-04-01T02:16:51;7.17;;;4.40;;
15063;SDS011;7631;52.088;5.088;2023-04-01T02:19:19;6.67;;;4.70;;
15063;SDS011;7631;52.088;5.088;2023-04-01T02:21:48;8.63;;;4.97;;
15063;SDS011;7631;52.088;5.088;2023-04-01T02:24:14;7.20;;;4.63;;
15063;SDS011;7631;52.088;5.088;2023-04-01T02:26:40;5.80;;;4.37;;
15063;SDS011;7631;52.088;5.088;2023-04-01T02:29:06;8.73;;;4.90;;
15063;SDS011;7631;52.088;5.088;2023-04-01T02:31:33;5.67;;;4.20;;
15063;SDS011;7631;52.088;5.088;2023-04-01T02:33:59;7.20;;;4.53;;
15063;SDS011;7631;52.088;5.088;2023-04-01T02:36:24;7.83;;;4.83;;
15063;SDS011;7631;52.088;5.088;2023-04-01T02:38:50;7.93;;;4.43;;
15063;SDS011;7631;52.088;5.088;2023-04-01T02:41:16;8.10;;;4.60;;
15063;SDS011;7631;52.088;5.088;2023-04-01T02:43:41;6.37;;;4.50;;
15063;SDS011;7631;52.088;5.088;2023-04-01T02:46:07;6.93;;;4.07;;
15063;SDS011;7631;52.088;5.088;2023-04-01T02:48:32;6.33;;;4.07;;
15063;SDS011;7631;52.088;5.088;2023-04-01T02:50:57;7.07;;;4.30;;
15063;SDS011;7631;52.088;5.088;2023-04-01T02:53:22;5.63;;;3.83;;
15063;SDS011;7631;52.088;5.088;2023-04-01T02:55:47;6.10;;;4.30;;
15063;SDS011;7631;52.088;5.088;2023-04-01T02:58:15;7.10;;;4.00;;
15063;SDS011;7631;52.088;5.088;2023-04-01T03:00:40;5.07;;;3.33;;
15063;SDS011;7631;52.088;5.088;2023-04-01T03:03:06;6.10;;;4.00;;
15063;SDS011;7631;52.088;5.088;2023-04-01T03:05:31;5.20;;;3.93;;
15063;SDS011;7631;52.088;5.088;2023-04-01T03:07:56;5.27;;;3.60;;
15063;SDS011;7631;52.088;5.088;2023-04-01T03:10:21;5.90;;;3.47;;
15063;SDS011;7631;52.088;5.088;2023-04-01T03:12:47;5.00;;;3.60;;
15063;SDS011;7631;52.088;5.088;2023-04-01T03:15:12;5.73;;;3.73;;
15063;SDS011;7631;52.088;5.088;2023-04-01T03:17:39;6.43;;;4.00;;
15063;SDS011;7631;52.088;5.088;2023-04-01T03:20:04;5.93;;;3.63;;
15063;SDS011;7631;52.088;5.088;2023-04-01T03:22:30;5.60;;;3.23;;
15063;SDS011;7631;52.088;5.088;2023-04-01T03:24:55;4.57;;;3.30;;
15063;SDS011;7631;52.088;5.088;2023-04-01T03:27:21;4.37;;;3.40;;
15063;SDS011;7631;52.088;5.088;2023-04-01T03:29:46;5.07;;;3.50;;
15063;SDS011;7631;52.088;5.088;2023-04-01T03:32:11;5.13;;;3.97;;
15063;SDS011;7631;52.088;5.088;2023-04-01T03:34:36;5.70;;;3.67;;
15063;SDS011;7631;52.088;5.088;2023-04-01T03:37:02;5.80;;;3.70;;
15063;SDS011;7631;52.088;5.088;2023-04-01T03:39:27;5.20;;;3.77;;
15063;SDS011;7631;52.088;5.088;2023-04-01T03:41:52;5.40;;;3.70;;
15063;SDS011;7631;52.088;5.088;2023-04-01T03:44:17;5.23;;;3.70;;
15063;SDS011;7631;52.088;5.088;2023-04-01T03:46:42;6.90;;;3.80;;
15063;SDS011;7631;52.088;5.088;2023-04-01T03:49:08;5.77;;;3.70;;
15063;SDS011;7631;52.088;5.088;2023-04-01T03:51:41;5.30;;;3.90;;
15063;SDS011;7631;52.088;5.088;2023-04-01T03:54:06;5.33;;;3.57;;
15063;SDS011;7631;52.088;5.088;2023-04-01T03:56:32;4.67;;;3.83;;
15063;SDS011;7631;52.088;5.088;2023-04-01T03:58:57;4.10;;;3.57;;
15063;SDS011;7631;52.088;5.088;2023-04-01T04:01:22;4.27;;;3.63;;
15063;SDS011;7631;52.088;5.088;2023-04-01T04:03:48;5.77;;;3.70;;
15063;SDS011;7631;52.088;5.088;2023-04-01T04:06:14;7.00;;;4.13;;
15063;SDS011;7631;52.088;5.088;2023-04-01T04:08:40;5.93;;;3.97;;
15063;SDS011;7631;52.088;5.088;2023-04-01T04:11:05;5.77;;;4.00;;
15063;SDS011;7631;52.088;5.088;2023-04-01T04:13:30;4.23;;;3.70;;
15063;SDS011;7631;52.088;5.088;2023-04-01T04:15:55;5.07;;;3.90;;
15063;SDS011;7631;52.088;5.088;2023-04-01T04:18:21;5.23;;;3.80;;
15063;SDS011;7631;52.088;5.088;2023-04-01T04:20:46;4.93;;;4.10;;
15063;SDS011;7631;52.088;5.088;2023-04-01T04:23:13;5.03;;;4.30;;
15063;SDS011;7631;52.088;5.088;2023-04-01T04:25:38;4.70;;;3.93;;
15063;SDS011;7631;52.088;5.088;2023-04-01T04:28:03;6.97;;;4.47;;
15063;SDS011;7631;52.088;5.088;2023-04-01T04:30:29;5.80;;;4.40;;
15063;SDS011;7631;52.088;5.088;2023-04-01T04:32:54;5.77;;;4.40;;
15063;SDS011;7631;52.088;5.088;2023-04-01T04:35:19;5.23;;;4.23;;
15063;SDS011;7631;52.088;5.088;2023-04-01T04:37:44;4.60;;;4.10;;
15063;SDS011;7631;52.088;5.088;2023-04-01T04:40:09;6.83;;;4.70;;
15063;SDS011;7631;52.088;5.088;2023-04-01T04:42:35;5.67;;;4.53;;
15063;SDS011;7631;52.088;5.088;2023-04-01T04:45:00;5.53;;;4.27;;
15063;SDS011;7631;52.088;5.088;2023-04-01T04:47:25;4.77;;;4.00;;
15063;SDS011;7631;52.088;5.088;2023-04-01T04:49:50;4.63;;;4.13;;
15063;SDS011;7631;52.088;5.088;2023-04-01T04:52:15;5.03;;;4.17;;
15063;SDS011;7631;52.088;5.088;2023-04-01T04:54:41;5.63;;;4.13;;
15063;SDS011;7631;52.088;5.088;2023-04-01T04:57:06;4.87;;;4.13;;
15063;SDS011;7631;52.088;5.088;2023-04-01T04:59:31;5.27;;;4.40;;
15063;SDS011;7631;52.088;5.088;2023-04-01T05:01:56;5.13;;;4.50;;
15063;SDS011;7631;52.088;5.088;2023-04-01T05:04:22;6.30;;;4.50;;
15063;SDS011;7631;52.088;5.088;2023-04-01T05:06:47;6.17;;;4.80;;
15063;SDS011;7631;52.088;5.088;2023-04-01T05:09:12;6.03;;;5.00;;
15063;SDS011;7631;52.088;5.088;2023-04-01T05:11:37;5.50;;;4.67;;
15063;SDS011;7631;52.088;5.088;2023-04-01T05:14:02;6.87;;;5.20;;
15063;SDS011;7631;52.088;5.088;2023-04-01T05:16:27;5.40;;;4.63;;
15063;SDS011;7631;52.088;5.088;2023-04-01T05:18:53;6.23;;;5.43;;
15063;SDS011;7631;52.088;5.088;2023-04-01T05:21:18;6.07;;;4.93;;
15063;SDS011;7631;52.088;5.088;2023-04-01T05:23:43;5.77;;;4.67;;
15063;SDS011;7631;52.088;5.088;2023-04-01T05:26:10;6.50;;;4.47;;
15063;SDS011;7631;52.088;5.088;2023-04-01T05:28:35;6.70;;;5.00;;
15063;SDS011;7631;52.088;5.088;2023-04-01T05:31:02;6.43;;;4.67;;
15063;SDS011;7631;52.088;5.088;2023-04-01T05:33:28;6.87;;;5.50;;
15063;SDS011;7631;52.088;5.088;2023-04-01T05:35:53;5.70;;;4.47;;
15063;SDS011;7631;52.088;5.088;2023-04-01T05:38:19;5.80;;;5.07;;
15063;SDS011;7631;52.088;5.088;2023-04-01T05:40:44;7.00;;;5.90;;
15063;SDS011;7631;52.088;5.088;2023-04-01T05:43:10;6.17;;;5.13;;
15063;SDS011;7631;52.088;5.088;2023-04-01T05:45:35;6.70;;;5.40;;
15063;SDS011;7631;52.088;5.088;2023-04-01T05:48:01;7.27;;;5.77;;
15063;SDS011;7631;52.088;5.088;2023-04-01T05:50:26;6.27;;;5.00;;
15063;SDS011;7631;52.088;5.088;2023-04-01T05:52:52;6.03;;;5.00;;
15063;SDS011;7631;52.088;5.088;2023-04-01T05:55:17;6.37;;;5.10;;
15063;SDS011;7631;52.088;5.088;2023-04-01T05:57:44;6.60;;;5.23;;
15063;SDS011;7631;52.088;5.088;2023-04-01T06:00:09;7.70;;;5.13;;
15063;SDS011;7631;52.088;5.088;2023-04-01T06:02:35;5.97;;;5.13;;
15063;SDS011;7631;52.088;5.088;2023-04-01T06:05:03;6.33;;;5.33;;
15063;SDS011;7631;52.088;5.088;2023-04-01T06:07:34;6.93;;;5.57;;
15063;SDS011;7631;52.088;5.088;2023-04-01T06:10:00;6.13;;;5.47;;
15063;SDS011;7631;52.088;5.088;2023-04-01T06:15:12;6.77;;;5.50;;
15063;SDS011;7631;52.088;5.088;2023-04-01T06:33:09;7.33;;;6.23;;
15063;SDS011;7631;52.088;5.088;2023-04-01T06:38:34;7.20;;;5.90;;
15063;SDS011;7631;52.088;5.088;2023-04-01T06:54:36;8.23;;;6.83;;
15063;SDS011;7631;52.088;5.088;2023-04-01T06:57:49;9.23;;;7.40;;
15063;SDS011;7631;52.088;5.088;2023-04-01T06:59:48;8.03;;;6.83;;
15063;SDS011;7631;52.088;5.088;2023-04-01T07:04:43;10.37;;;6.97;;
15063;SDS011;7631;52.088;5.088;2023-04-01T07:07:14;9.93;;;7.07;;
15063;SDS011;7631;52.088;5.088;2023-04-01T07:09:43;8.83;;;6.80;;
15063;SDS011;7631;52.088;5.088;2023-04-01T07:12:22;9.20;;;7.30;;
15063;SDS011;7631;52.088;5.088;2023-04-01T07:14:50;10.87;;;7.83;;
15063;SDS011;7631;52.088;5.088;2023-04-01T07:17:24;9.50;;;7.30;;
15063;SDS011;7631;52.088;5.088;2023-04-01T07:25:19;9.13;;;7.87;;
15063;SDS011;7631;52.088;5.088;2023-04-01T07:27:45;10.23;;;7.70;;
15063;SDS011;7631;52.088;5.088;2023-04-01T07:30:14;9.20;;;7.63;;
15063;SDS011;7631;52.088;5.088;2023-04-01T07:32:46;10.00;;;8.00;;
15063;SDS011;7631;52.088;5.088;2023-04-01T07:42:40;10.10;;;7.70;;
15063;SDS011;7631;52.088;5.088;2023-04-01T07:55:18;10.70;;;8.27;;
15063;SDS011;7631;52.088;5.088;2023-04-01T08:00:36;9.37;;;7.53;;
15063;SDS011;7631;52.088;5.088;2023-04-01T08:03:21;9.40;;;7.87;;
15063;SDS011;7631;52.088;5.088;2023-04-01T08:05:57;10.73;;;7.60;;
15063;SDS011;7631;52.088;5.088;2023-04-01T08:10:53;11.93;;;8.80;;
15063;SDS011;7631;52.088;5.088;2023-04-01T08:13:38;11.40;;;8.10;;
15063;SDS011;7631;52.088;5.088;2023-04-01T08:16:16;10.17;;;8.03;;
15063;SDS011;7631;52.088;5.088;2023-04-01T08:21:17;9.77;;;8.07;;
15063;SDS011;7631;52.088;5.088;2023-04-01T08:23:46;11.97;;;8.13;;
15063;SDS011;7631;52.088;5.088;2023-04-01T08:26:13;11.27;;;8.40;;
15063;SDS011;7631;52.088;5.088;2023-04-01T08:28:49;11.47;;;7.83;;
15063;SDS011;7631;52.088;5.088;2023-04-01T08:31:18;11.80;;;8.20;;
15063;SDS011;7631;52.088;5.088;2023-04-01T08:33:47;11.53;;;8.47;;
15063;SDS011;7631;52.088;5.088;2023-04-01T08:36:18;9.67;;;8.03;;
15063;SDS011;7631;52.088;5.088;2023-04-01T08:46:23;12.07;;;8.67;;
15063;SDS011;7631;52.088;5.088;2023-04-01T08:49:01;12.73;;;8.43;;
15063;SDS011;7631;52.088;5.088;2023-04-01T08:54:35;11.40;;;7.83;;
15063;SDS011;7631;52.088;5.088;2023-04-01T08:59:38;10.47;;;7.80;;
15063;SDS011;7631;52.088;5.088;2023-04-01T09:10:35;9.13;;;6.87;;
15063;SDS011;7631;52.088;5.088;2023-04-01T09:34:03;10.20;;;7.30;;
15063;SDS011;7631;52.088;5.088;2023-04-01T09:36:38;8.60;;;6.77;;
15063;SDS011;7631;52.088;5.088;2023-04-01T09:39:18;8.97;;;6.80;;
15063;SDS011;7631;52.088;5.088;2023-04-01T09:49:56;9.13;;;6.73;;
15063;SDS011;7631;52.088;5.088;2023-04-01T10:00:36;9.93;;;6.63;;
15063;SDS011;7631;52.088;5.088;2023-04-01T10:03:28;8.03;;;6.83;;
15063;SDS011;7631;52.088;5.088;2023-04-01T10:34:29;7.90;;;5.80;;
15063;SDS011;7631;52.088;5.088;2023-04-01T10:37:03;7.30;;;6.03;;
15063;SDS011;7631;52.088;5.088;2023-04-01T10:44:45;6.47;;;5.57;;
15063;SDS011;7631;52.088;5.088;2023-04-01T10:55:29;6.10;;;5.00;;
15063;SDS011;7631;52.088;5.088;2023-04-01T10:58:08;6.20;;;5.03;;
15063;SDS011;7631;52.088;5.088;2023-04-01T11:03:28;5.83;;;5.20;;
15063;SDS011;7631;52.088;5.088;2023-04-01T11:34:26;5.27;;;4.27;;
15063;SDS011;7631;52.088;5.088;2023-04-01T11:42:23;5.77;;;4.30;;
15063;SDS011;7631;52.088;5.088;2023-04-01T11:45:38;4.50;;;3.80;;
15063;SDS011;7631;52.088;5.088;2023-04-01T11:47:52;4.87;;;4.20;;
15063;SDS011;7631;52.088;5.088;2023-04-01T11:58:18;4.53;;;3.87;;
15063;SDS011;7631;52.088;5.088;2023-04-01T12:00:51;4.43;;;4.03;;
15063;SDS011;7631;52.088;5.088;2023-04-01T12:16:18;4.87;;;4.00;;
15063;SDS011;7631;52.088;5.088;2023-04-01T12:18:50;4.03;;;3.63;;
15063;SDS011;7631;52.088;5.088;2023-04-01T12:21:21;4.63;;;4.13;;
15063;SDS011;7631;52.088;5.088;2023-04-01T12:39:20;5.40;;;4.90;;
15063;SDS011;7631;52.088;5.088;2023-04-01T12:49:51;5.70;;;5.20;;
15063;SDS011;7631;52.088;5.088;2023-04-01T12:55:08;5.87;;;5.33;;
15063;SDS011;7631;52.088;5.088;2023-04-01T12:57:54;5.73;;;5.20;;
15063;SDS011;7631;52.088;5.088;2023-04-01T13:03:07;7.40;;;6.10;;
15063;SDS011;7631;52.088;5.088;2023-04-01T13:06:21;5.53;;;4.60;;
15063;SDS011;7631;52.088;5.088;2023-04-01T13:08:43;6.83;;;5.70;;
15063;SDS011;7631;52.088;5.088;2023-04-01T13:11:12;6.03;;;5.43;;
15063;SDS011;7631;52.088;5.088;2023-04-01T13:16:22;5.90;;;5.33;;
15063;SDS011;7631;52.088;5.088;2023-04-01T13:21:39;6.00;;;5.27;;
15063;SDS011;7631;52.088;5.088;2023-04-01T13:24:24;5.73;;;4.90;;
15063;SDS011;7631;52.088;5.088;2023-04-01T13:42:06;5.80;;;4.90;;
15063;SDS011;7631;52.088;5.088;2023-04-01T13:52:52;5.30;;;4.80;;
15063;SDS011;7631;52.088;5.088;2023-04-01T14:29:15;4.87;;;4.43;;
15063;SDS011;7631;52.088;5.088;2023-04-01T14:32:03;5.30;;;4.80;;
15063;SDS011;7631;52.088;5.088;2023-04-01T14:34:44;5.23;;;4.73;;
15063;SDS011;7631;52.088;5.088;2023-04-01T14:37:32;5.17;;;4.67;;
15063;SDS011;7631;52.088;5.088;2023-04-01T14:40:14;5.10;;;4.50;;
15063;SDS011;7631;52.088;5.088;2023-04-01T14:47:39;5.47;;;4.97;;
15063;SDS011;7631;52.088;5.088;2023-04-01T14:50:21;5.00;;;4.50;;
15063;SDS011;7631;52.088;5.088;2023-04-01T14:55:36;5.00;;;4.50;;
15063;SDS011;7631;52.088;5.088;2023-04-01T14:58:11;5.40;;;4.90;;
15063;SDS011;7631;52.088;5.088;2023-04-01T15:00:55;5.00;;;4.50;;
15063;SDS011;7631;52.088;5.088;2023-04-01T15:08:32;5.20;;;4.70;;
15063;SDS011;7631;52.088;5.088;2023-04-01T15:11:05;5.30;;;4.80;;
15063;SDS011;7631;52.088;5.088;2023-04-01T15:13:42;5.33;;;4.83;;
15063;SDS011;7631;52.088;5.088;2023-04-01T15:18:49;5.73;;;5.23;;
15063;SDS011;7631;52.088;5.088;2023-04-01T15:21:29;5.63;;;4.80;;
15063;SDS011;7631;52.088;5.088;2023-04-01T15:31:31;5.57;;;4.97;;
15063;SDS011;7631;52.088;5.088;2023-04-01T15:36:43;5.23;;;4.73;;
15063;SDS011;7631;52.088;5.088;2023-04-01T15:41:36;6.00;;;5.40;;
15063;SDS011;7631;52.088;5.088;2023-04-01T15:44:04;5.40;;;4.60;;
15063;SDS011;7631;52.088;5.088;2023-04-01T15:46:49;5.03;;;4.57;;
15063;SDS011;7631;52.088;5.088;2023-04-01T15:51:54;5.40;;;4.90;;
15063;SDS011;7631;52.088;5.088;2023-04-01T15:57:18;5.33;;;4.83;;
15063;SDS011;7631;52.088;5.088;2023-04-01T16:02:33;4.97;;;4.47;;
15063;SDS011;7631;52.088;5.088;2023-04-01T16:05:04;5.27;;;4.77;;
15063;SDS011;7631;52.088;5.088;2023-04-01T16:13:38;5.73;;;5.10;;
15063;SDS011;7631;52.088;5.088;2023-04-01T16:15:46;4.83;;;4.40;;
15063;SDS011;7631;52.088;5.088;2023-04-01T16:21:58;5.30;;;4.80;;
15063;SDS011;7631;52.088;5.088;2023-04-01T16:26:21;5.93;;;5.20;;
15063;SDS011;7631;52.088;5.088;2023-04-01T16:28:54;5.73;;;4.93;;
15063;SDS011;7631;52.088;5.088;2023-04-01T16:33:52;5.33;;;4.87;;
15063;SDS011;7631;52.088;5.088;2023-04-01T16:41:36;5.40;;;4.90;;
15063;SDS011;7631;52.088;5.088;2023-04-01T16:44:22;5.20;;;4.70;;
15063;SDS011;7631;52.088;5.088;2023-04-01T16:46:50;4.87;;;4.37;;
15063;SDS011;7631;52.088;5.088;2023-04-01T17:01:53;3.60;;;3.30;;
15063;SDS011;7631;52.088;5.088;2023-04-01T17:04:25;4.27;;;3.87;;
15063;SDS011;7631;52.088;5.088;2023-04-01T17:06:58;3.73;;;3.43;;
15063;SDS011;7631;52.088;5.088;2023-04-01T17:22:27;3.30;;;3.00;;
15063;SDS011;7631;52.088;5.088;2023-04-01T17:25:44;3.00;;;2.70;;
15063;SDS011;7631;52.088;5.088;2023-04-01T17:30:28;2.70;;;2.50;;
15063;SDS011;7631;52.088;5.088;2023-04-01T17:38:04;2.53;;;2.33;;
15063;SDS011;7631;52.088;5.088;2023-04-01T17:40:48;2.80;;;2.60;;
15063;SDS011;7631;52.088;5.088;2023-04-01T17:45:54;2.40;;;2.20;;
15063;SDS011;7631;52.088;5.088;2023-04-01T17:50:49;3.03;;;2.50;;
15063;SDS011;7631;52.088;5.088;2023-04-01T17:58:39;2.70;;;2.50;;
15063;SDS011;7631;52.088;5.088;2023-04-01T18:11:12;2.30;;;2.10;;
15063;SDS011;7631;52.088;5.088;2023-04-01T18:21:43;2.43;;;2.23;;
15063;SDS011;7631;52.088;5.088;2023-04-01T18:24:15;2.40;;;2.20;;
15063;SDS011;7631;52.088;5.088;2023-04-01T18:26:46;2.30;;;2.10;;
15063;SDS011;7631;52.088;5.088;2023-04-01T18:29:13;2.43;;;2.23;;
15063;SDS011;7631;52.088;5.088;2023-04-01T18:31:45;2.13;;;1.93;;
15063;SDS011;7631;52.088;5.088;2023-04-01T18:34:15;2.70;;;2.50;;
15063;SDS011;7631;52.088;5.088;2023-04-01T18:36:53;2.40;;;2.20;;
15063;SDS011;7631;52.088;5.088;2023-04-01T18:40:02;2.53;;;2.30;;
15063;SDS011;7631;52.088;5.088;2023-04-01T19:00:14;2.40;;;2.20;;
15063;SDS011;7631;52.088;5.088;2023-04-01T19:02:50;2.20;;;2.00;;
15063;SDS011;7631;52.088;5.088;2023-04-01T19:05:30;2.60;;;2.40;;
15063;SDS011;7631;52.088;5.088;2023-04-01T19:07:56;2.60;;;2.40;;
15063;SDS011;7631;52.088;5.088;2023-04-01T19:20:41;2.63;;;2.43;;
15063;SDS011;7631;52.088;5.088;2023-04-01T19:23:31;2.83;;;2.63;;
15063;SDS011;7631;52.088;5.088;2023-04-01T19:25:54;2.63;;;2.43;;
15063;SDS011;7631;52.088;5.088;2023-04-01T19:28:34;2.90;;;2.70;;
15063;SDS011;7631;52.088;5.088;2023-04-01T19:33:47;3.10;;;2.80;;
15063;SDS011;7631;52.088;5.088;2023-04-01T19:36:29;3.10;;;2.90;;
15063;SDS011;7631;52.088;5.088;2023-04-01T19:42:08;3.00;;;2.80;;
15063;SDS011;7631;52.088;5.088;2023-04-01T19:46:59;3.57;;;3.27;;
15063;SDS011;7631;52.088;5.088;2023-04-01T19:49:42;3.97;;;3.47;;
15063;SDS011;7631;52.088;5.088;2023-04-01T19:52:31;3.83;;;3.53;;
15063;SDS011;7631;52.088;5.088;2023-04-01T19:57:32;3.83;;;3.43;;
15063;SDS011;7631;52.088;5.088;2023-04-01T20:00:05;4.47;;;4.07;;
15063;SDS011;7631;52.088;5.088;2023-04-01T20:05:20;4.20;;;3.80;;
15063;SDS011;7631;52.088;5.088;2023-04-01T20:07:51;4.33;;;3.93;;
15063;SDS011;7631;52.088;5.088;2023-04-01T20:10:20;5.13;;;4.73;;
15063;SDS011;7631;52.088;5.088;2023-04-01T20:15:33;4.70;;;4.30;;
15063;SDS011;7631;52.088;5.088;2023-04-01T20:18:44;4.73;;;4.33;;
15063;SDS011;7631;52.088;5.088;2023-04-01T20:20:53;5.70;;;5.20;;
15063;SDS011;7631;52.088;5.088;2023-04-01T20:25:54;5.30;;;4.90;;
15063;SDS011;7631;52.088;5.088;2023-04-01T20:28:42;5.00;;;4.60;;
15063;SDS011;7631;52.088;5.088;2023-04-01T20:31:10;4.87;;;4.43;;
15063;SDS011;7631;52.088;5.088;2023-04-01T20:39:13;5.80;;;5.30;;
15063;SDS011;7631;52.088;5.088;2023-04-01T20:41:52;5.80;;;5.30;;
15063;SDS011;7631;52.088;5.088;2023-04-01T20:46:53;5.23;;;4.83;;
15063;SDS011;7631;52.088;5.088;2023-04-01T20:49:34;6.20;;;5.60;;
15063;SDS011;7631;52.088;5.088;2023-04-01T20:57:19;5.70;;;5.20;;
15063;SDS011;7631;52.088;5.088;2023-04-01T21:00:01;5.70;;;5.20;;
15063;SDS011;7631;52.088;5.088;2023-04-01T21:02:34;6.30;;;5.70;;
15063;SDS011;7631;52.088;5.088;2023-04-01T21:10:34;6.33;;;5.73;;
15063;SDS011;7631;52.088;5.088;2023-04-01T21:23:48;6.00;;;5.50;;
15063;SDS011;7631;52.088;5.088;2023-04-01T21:26:09;6.00;;;5.40;;
15063;SDS011;7631;52.088;5.088;2023-04-01T21:36:36;6.00;;;5.40;;
15063;SDS011;7631;52.088;5.088;2023-04-01T21:39:19;6.07;;;5.57;;
15063;SDS011;7631;52.088;5.088;2023-04-01T21:41:52;5.97;;;5.47;;
15063;SDS011;7631;52.088;5.088;2023-04-01T21:47:17;5.43;;;4.93;;
15063;SDS011;7631;52.088;5.088;2023-04-01T21:49:49;6.27;;;5.67;;
15063;SDS011;7631;52.088;5.088;2023-04-01T21:52:24;6.10;;;5.50;;
15063;SDS011;7631;52.088;5.088;2023-04-01T21:54:58;6.17;;;5.57;;
15063;SDS011;7631;52.088;5.088;2023-04-01T22:00:12;6.57;;;5.97;;
15063;SDS011;7631;52.088;5.088;2023-04-01T22:03:19;6.00;;;5.50;;
15063;SDS011;7631;52.088;5.088;2023-04-01T22:05:39;6.23;;;5.63;;
15063;SDS011;7631;52.088;5.088;2023-04-01T22:10:58;6.63;;;6.03;;
15063;SDS011;7631;52.088;5.088;2023-04-01T22:13:39;6.40;;;5.80;;
15063;SDS011;7631;52.088;5.088;2023-04-01T22:18:45;6.23;;;5.63;;
15063;SDS011;7631;52.088;5.088;2023-04-01T22:21:21;5.90;;;5.40;;
15063;SDS011;7631;52.088;5.088;2023-04-01T22:26:44;6.50;;;5.87;;
15063;SDS011;7631;52.088;5.088;2023-04-01T22:31:52;6.53;;;5.93;;
15063;SDS011;7631;52.088;5.088;2023-04-01T22:34:32;6.40;;;5.80;;
15063;SDS011;7631;52.088;5.088;2023-04-01T22:37:21;6.67;;;6.07;;
15063;SDS011;7631;52.088;5.088;2023-04-01T22:49:56;6.20;;;5.63;;
15063;SDS011;7631;52.088;5.088;2023-04-01T22:55:10;6.90;;;6.30;;
15063;SDS011;7631;52.088;5.088;2023-04-01T23:02:59;7.17;;;6.00;;
15063;SDS011;7631;52.088;5.088;2023-04-01T23:05:25;7.07;;;6.40;;
15063;SDS011;7631;52.088;5.088;2023-04-01T23:13:04;6.80;;;6.20;;
15063;SDS011;7631;52.088;5.088;2023-04-01T23:15:30;7.47;;;6.77;;
15063;SDS011;7631;52.088;5.088;2023-04-01T23:28:32;7.73;;;6.93;;
15063;SDS011;7631;52.088;5.088;2023-04-01T23:31:01;7.30;;;6.53;;
15063;SDS011;7631;52.088;5.088;2023-04-01T23:33:28;10.40;;;7.57;;
15063;SDS011;7631;52.088;5.088;2023-04-01T23:35:55;8.03;;;7.23;;
15063;SDS011;7631;52.088;5.088;2023-04-01T23:38:21;7.33;;;6.63;;
15063;SDS011;7631;52.088;5.088;2023-04-01T23:40:47;7.47;;;6.77;;
15063;SDS011;7631;52.088;5.088;2023-04-01T23:43:14;9.23;;;8.27;;
15063;SDS011;7631;52.088;5.088;2023-04-01T23:45:41;8.40;;;7.50;;
15063;SDS011;7631;52.088;5.088;2023-04-01T23:48:07;7.87;;;7.07;;
15063;SDS011;7631;52.088;5.088;2023-04-01T23:50:35;8.53;;;7.60;;
15063;SDS011;7631;52.088;5.088;2023-04-01T23:55:45;8.23;;;7.23;;
15063;SDS011;7631;52.088;5.088;2023-04-01T23:58:13;10.13;;;7.73;;
